createdAt,value
2023-02-23T00:00:29.408Z,27.33
2023-02-23T00:02:58.999Z,35.22
2023-02-23T00:05:27.332Z,30.42
2023-02-23T00:07:54.435Z,26.15
2023-02-23T00:10:25.358Z,24.85
2023-02-23T00:12:52.360Z,25.45
2023-02-23T00:15:19.561Z,21.77
2023-02-23T00:17:47.799Z,24.77
2023-02-23T00:20:16.564Z,24.10
2023-02-23T00:22:43.591Z,23.40
2023-02-23T00:25:15.207Z,21.92
2023-02-23T00:27:45.918Z,29.65
2023-02-23T00:30:14.753Z,25.70
2023-02-23T00:32:41.985Z,25.27
2023-02-23T00:35:12.626Z,26.05
2023-02-23T00:37:46.037Z,24.92
2023-02-23T00:40:18.283Z,25.77
2023-02-23T00:42:46.529Z,28.23
2023-02-23T00:45:14.519Z,35.28
2023-02-23T00:47:44.078Z,30.00
2023-02-23T00:50:15.879Z,36.90
2023-02-23T00:52:44.201Z,31.13
2023-02-23T00:55:13.614Z,32.25
2023-02-23T00:57:41.414Z,30.70
2023-02-23T01:00:20.720Z,28.20
2023-02-23T01:02:48.534Z,28.98
2023-02-23T01:05:16.582Z,24.42
2023-02-23T01:07:46.508Z,29.05
2023-02-23T01:10:19.718Z,31.08
2023-02-23T01:12:49.828Z,23.88
2023-02-23T01:15:18.613Z,23.30
2023-02-23T01:17:46.594Z,28.83
2023-02-23T01:20:22.400Z,27.83
2023-02-23T01:22:51.560Z,26.55
2023-02-23T01:25:18.919Z,29.48
2023-02-23T01:27:46.040Z,29.00
2023-02-23T01:30:15.102Z,26.25
2023-02-23T01:32:44.181Z,26.73
2023-02-23T01:35:12.650Z,24.70
2023-02-23T01:37:42.711Z,26.98
2023-02-23T01:40:28.622Z,30.55
2023-02-23T01:43:16.164Z,30.02
2023-02-23T01:45:45.801Z,33.80
2023-02-23T01:48:17.324Z,30.98
2023-02-23T01:51:10.534Z,30.65
2023-02-23T01:53:42.009Z,26.58
2023-02-23T01:56:12.924Z,34.85
2023-02-23T01:58:45.039Z,30.95
2023-02-23T02:01:13.039Z,26.02
2023-02-23T02:03:48.274Z,24.27
2023-02-23T02:06:19.312Z,27.48
2023-02-23T02:08:54.528Z,25.83
2023-02-23T02:11:26.142Z,35.58
2023-02-23T02:13:57.291Z,33.00
2023-02-23T02:16:31.203Z,31.52
2023-02-23T02:19:18.592Z,36.08
2023-02-23T02:22:11.021Z,36.47
2023-02-23T02:24:43.848Z,37.05
2023-02-23T02:27:26.499Z,32.45
2023-02-23T02:30:10.317Z,30.45
2023-02-23T02:33:05.454Z,36.03
2023-02-23T02:35:40.827Z,32.33
2023-02-23T02:38:50.865Z,39.70
2023-02-23T02:41:24.633Z,29.75
2023-02-23T02:44:02.334Z,28.27
2023-02-23T02:46:37.318Z,39.28
2023-02-23T02:49:28.600Z,46.30
2023-02-23T02:52:14.381Z,33.10
2023-02-23T02:54:48.059Z,33.15
2023-02-23T02:57:17.504Z,37.63
2023-02-23T03:00:06.182Z,35.92
2023-02-23T03:02:58.333Z,28.60
2023-02-23T03:05:49.057Z,28.93
2023-02-23T03:08:37.847Z,33.55
2023-02-23T03:11:28.575Z,28.50
2023-02-23T03:14:52.213Z,27.65
2023-02-23T03:17:47.722Z,32.95
2023-02-23T03:20:48.350Z,29.00
2023-02-23T03:23:45.942Z,24.10
2023-02-23T03:26:46.859Z,27.15
2023-02-23T03:29:41.867Z,30.17
2023-02-23T03:32:27.605Z,28.23
2023-02-23T03:35:23.381Z,31.90
2023-02-23T03:38:24.005Z,36.72
2023-02-23T03:41:12.244Z,35.95
2023-02-23T03:44:05.616Z,30.67
2023-02-23T03:46:54.585Z,33.40
2023-02-23T03:49:44.319Z,37.28
2023-02-23T03:52:36.719Z,34.45
2023-02-23T03:55:29.239Z,27.20
2023-02-23T03:58:21.125Z,35.80
2023-02-23T04:01:09.638Z,28.33
2023-02-23T04:03:59.288Z,31.60
2023-02-23T04:06:48.018Z,37.67
2023-02-23T04:09:33.827Z,30.27
2023-02-23T04:12:39.496Z,47.45
2023-02-23T04:15:12.674Z,34.53
2023-02-23T04:17:40.270Z,27.92
2023-02-23T04:20:10.765Z,32.00
2023-02-23T04:22:38.299Z,35.10
2023-02-23T04:25:08.999Z,30.15
2023-02-23T04:27:36.857Z,29.13
2023-02-23T04:30:05.068Z,33.10
2023-02-23T04:32:32.526Z,32.17
2023-02-23T04:34:59.553Z,34.33
2023-02-23T04:37:26.557Z,32.33
2023-02-23T04:39:53.634Z,34.75
2023-02-23T04:42:20.681Z,37.78
2023-02-23T04:44:47.647Z,31.88
2023-02-23T04:47:15.843Z,34.40
2023-02-23T04:49:43.943Z,30.52
2023-02-23T04:52:10.935Z,40.55
2023-02-23T04:54:39.205Z,34.15
2023-02-23T04:57:06.790Z,40.38
2023-02-23T04:59:34.125Z,44.03
2023-02-23T05:02:01.434Z,31.65
2023-02-23T05:04:28.990Z,36.00
2023-02-23T05:06:56.269Z,35.22
2023-02-23T05:09:23.473Z,39.05
2023-02-23T05:11:50.616Z,44.60
2023-02-23T05:14:17.673Z,35.58
2023-02-23T05:16:44.801Z,42.05
2023-02-23T05:19:11.967Z,32.35
2023-02-23T05:21:39.172Z,35.88
2023-02-23T05:24:06.398Z,32.50
2023-02-23T05:26:33.624Z,32.88
2023-02-23T05:29:00.897Z,34.13
2023-02-23T05:31:28.757Z,34.15
2023-02-23T05:33:55.851Z,30.88
2023-02-23T05:36:22.914Z,35.50
2023-02-23T05:38:50.170Z,34.65
2023-02-23T05:41:19.813Z,35.28
2023-02-23T05:43:50.178Z,37.20
2023-02-23T05:46:20.184Z,31.05
2023-02-23T05:48:47.769Z,38.40
2023-02-23T05:51:16.083Z,38.72
2023-02-23T05:53:43.972Z,33.28
2023-02-23T05:56:13.894Z,42.00
2023-02-23T05:58:40.917Z,32.63
2023-02-23T06:01:07.946Z,37.45
2023-02-23T06:03:35.577Z,36.00
2023-02-23T06:06:02.997Z,38.85
2023-02-23T06:08:29.969Z,34.85
2023-02-23T06:10:57.013Z,35.35
2023-02-23T06:13:23.997Z,36.90
2023-02-23T06:15:51.042Z,43.58
2023-02-23T06:18:18.179Z,39.65
2023-02-23T06:20:45.962Z,36.58
2023-02-23T06:23:15.527Z,36.25
2023-02-23T06:25:43.800Z,37.63
2023-02-23T06:28:10.824Z,36.28
2023-02-23T06:30:38.886Z,32.88
2023-02-23T06:33:06.281Z,39.67
2023-02-23T06:35:34.587Z,45.72
2023-02-23T06:38:02.091Z,34.65
2023-02-23T06:40:29.210Z,40.55
2023-02-23T06:42:56.228Z,37.83
2023-02-23T06:45:23.351Z,47.17
2023-02-23T06:47:50.344Z,41.65
2023-02-23T06:50:17.760Z,37.92
2023-02-23T06:52:45.907Z,46.05
2023-02-23T06:55:15.857Z,48.20
2023-02-23T06:57:43.979Z,48.95
2023-02-23T07:00:14.988Z,41.50
2023-02-23T07:02:42.001Z,42.95
2023-02-23T07:05:09.564Z,50.45
2023-02-23T07:07:37.242Z,46.28
2023-02-23T07:10:05.920Z,51.80
2023-02-23T07:12:33.169Z,53.20
2023-02-23T07:15:00.204Z,44.88
2023-02-23T07:17:27.225Z,47.53
2023-02-23T07:19:54.590Z,45.47
2023-02-23T07:22:22.383Z,52.97
2023-02-23T07:24:49.476Z,42.50
2023-02-23T07:27:16.471Z,39.72
2023-02-23T07:29:43.486Z,38.92
2023-02-23T07:32:10.681Z,45.08
2023-02-23T07:34:37.910Z,45.72
2023-02-23T07:37:05.449Z,51.25
2023-02-23T07:39:32.431Z,46.45
2023-02-23T07:41:59.456Z,55.58
2023-02-23T07:44:26.474Z,52.30
2023-02-23T07:46:53.643Z,45.63
2023-02-23T07:49:20.657Z,50.03
2023-02-23T07:51:47.632Z,54.65
2023-02-23T07:54:15.633Z,52.33
2023-02-23T07:56:42.786Z,48.58
2023-02-23T07:59:09.788Z,54.83
2023-02-23T08:01:36.822Z,56.22
2023-02-23T08:04:03.875Z,53.40
2023-02-23T08:06:31.278Z,54.75
2023-02-23T08:09:02.292Z,54.20
2023-02-23T08:11:29.304Z,49.03
2023-02-23T08:14:00.873Z,70.03
2023-02-23T08:16:29.348Z,54.40
2023-02-23T08:18:58.448Z,52.63
2023-02-23T08:21:26.551Z,58.80
2023-02-23T08:23:53.594Z,150.18
2023-02-23T08:26:20.730Z,69.15
2023-02-23T08:28:47.818Z,58.53
2023-02-23T08:31:18.710Z,55.05
2023-02-23T08:33:46.019Z,53.00
2023-02-23T08:36:13.001Z,53.05
2023-02-23T08:38:39.966Z,62.10
2023-02-23T08:41:07.043Z,59.55
2023-02-23T08:43:34.181Z,53.47
2023-02-23T08:46:01.244Z,54.95
2023-02-23T08:48:28.342Z,43.30
2023-02-23T08:50:56.856Z,50.80
2023-02-23T08:53:25.603Z,40.92
2023-02-23T08:56:04.548Z,46.50
2023-02-23T08:58:32.778Z,50.28
2023-02-23T09:01:00.393Z,44.38
2023-02-23T09:03:30.129Z,44.28
2023-02-23T09:05:59.350Z,46.85
2023-02-23T09:08:26.401Z,38.38
2023-02-23T09:10:53.600Z,39.47
2023-02-23T09:13:20.609Z,36.83
2023-02-23T09:15:47.971Z,34.58
2023-02-23T09:18:15.083Z,35.35
2023-02-23T09:20:43.163Z,22.50
2023-02-23T09:23:11.852Z,25.13
2023-02-23T09:25:43.273Z,22.77
2023-02-23T09:28:17.796Z,20.88
2023-02-23T09:30:46.581Z,25.17
2023-02-23T09:33:14.301Z,16.50
2023-02-23T09:35:41.416Z,19.85
2023-02-23T09:38:09.294Z,17.48
2023-02-23T09:40:55.343Z,20.02
2023-02-23T09:43:50.202Z,18.95
2023-02-23T09:46:26.984Z,17.13
2023-02-23T09:48:59.432Z,20.50
2023-02-23T09:51:29.355Z,18.67
2023-02-23T09:53:59.626Z,19.55
2023-02-23T09:56:43.300Z,16.65
2023-02-23T09:59:15.594Z,17.52
2023-02-23T10:01:48.351Z,18.20
2023-02-23T10:04:32.419Z,30.60
2023-02-23T10:07:21.491Z,19.40
2023-02-23T10:10:25.106Z,22.45
2023-02-23T10:13:21.675Z,21.75
2023-02-23T10:16:30.389Z,20.63
2023-02-23T10:19:19.120Z,21.10
2023-02-23T10:21:55.848Z,20.10
2023-02-23T10:24:32.831Z,25.40
2023-02-23T10:27:07.752Z,36.72
2023-02-23T10:29:56.490Z,24.02
2023-02-23T10:32:40.448Z,20.33
2023-02-23T10:35:16.390Z,33.42
2023-02-23T10:37:43.474Z,21.65
2023-02-23T10:40:17.134Z,21.65
2023-02-23T10:42:44.432Z,23.23
2023-02-23T10:45:22.864Z,25.80
2023-02-23T10:48:01.872Z,25.20
2023-02-23T10:50:30.423Z,23.10
2023-02-23T10:53:09.965Z,21.60
2023-02-23T10:55:37.018Z,24.85
2023-02-23T10:58:19.016Z,26.38
2023-02-23T11:01:05.373Z,22.53
2023-02-23T11:03:34.309Z,22.10
2023-02-23T11:06:02.018Z,21.35
2023-02-23T11:08:35.793Z,25.27
2023-02-23T11:11:25.399Z,23.95
2023-02-23T11:13:52.551Z,24.33
2023-02-23T11:16:22.707Z,29.35
2023-02-23T11:18:55.879Z,29.80
2023-02-23T11:21:34.992Z,24.52
2023-02-23T11:24:33.621Z,22.35
2023-02-23T11:27:06.726Z,19.67
2023-02-23T11:29:35.358Z,24.75
2023-02-23T11:32:26.934Z,20.52
2023-02-23T11:35:20.210Z,26.23
2023-02-23T11:37:48.485Z,23.70
2023-02-23T11:40:31.797Z,30.80
2023-02-23T11:43:13.439Z,23.83
2023-02-23T11:45:50.994Z,27.67
2023-02-23T11:48:22.350Z,27.50
2023-02-23T11:50:50.300Z,28.73
2023-02-23T11:53:24.585Z,32.25
2023-02-23T11:55:54.846Z,30.30
2023-02-23T11:58:29.274Z,28.65
2023-02-23T12:00:58.712Z,28.33
2023-02-23T12:03:29.344Z,32.35
2023-02-23T12:05:59.191Z,29.42
2023-02-23T12:08:39.301Z,30.50
2023-02-23T12:11:14.455Z,29.23
2023-02-23T12:13:50.703Z,32.55
2023-02-23T12:16:32.524Z,28.50
2023-02-23T12:19:15.298Z,32.10
2023-02-23T12:21:46.064Z,33.20
2023-02-23T12:24:30.773Z,32.72
2023-02-23T12:27:03.858Z,30.98
2023-02-23T12:29:54.484Z,35.55
2023-02-23T12:32:28.220Z,36.60
2023-02-23T12:35:06.183Z,37.50
2023-02-23T12:37:40.265Z,34.30
2023-02-23T12:40:14.782Z,44.05
2023-02-23T12:43:12.261Z,44.20
2023-02-23T12:45:48.993Z,39.10
2023-02-23T12:48:41.884Z,47.97
2023-02-23T12:51:25.821Z,54.65
2023-02-23T12:53:52.983Z,46.58
2023-02-23T12:56:22.656Z,46.88
2023-02-23T12:59:01.764Z,49.72
2023-02-23T13:01:35.168Z,41.88
2023-02-23T13:04:17.689Z,31.80
2023-02-23T13:07:02.833Z,26.98
2023-02-23T13:09:43.307Z,24.65
2023-02-23T13:12:19.286Z,23.40
2023-02-23T13:15:15.633Z,27.58
2023-02-23T13:17:59.023Z,30.75
2023-02-23T13:20:34.897Z,23.45
2023-02-23T13:23:18.701Z,18.23
2023-02-23T13:26:00.605Z,17.77
2023-02-23T13:28:52.684Z,17.73
2023-02-23T13:31:30.970Z,15.93
2023-02-23T13:34:00.534Z,16.23
2023-02-23T13:36:29.829Z,17.23
2023-02-23T13:39:30.907Z,11.98
2023-02-23T13:42:21.795Z,17.30
2023-02-23T13:45:16.169Z,20.63
2023-02-23T13:48:04.626Z,16.73
2023-02-23T13:51:00.323Z,16.00
2023-02-23T13:53:36.354Z,17.15
2023-02-23T13:56:08.321Z,15.85
2023-02-23T13:58:36.170Z,15.00
2023-02-23T14:01:11.046Z,15.18
2023-02-23T14:03:46.181Z,16.27
2023-02-23T14:06:18.190Z,17.52
2023-02-23T14:08:52.362Z,16.85
2023-02-23T14:11:36.724Z,16.50
2023-02-23T14:14:04.294Z,24.02
2023-02-23T14:16:31.997Z,18.25
2023-02-23T14:19:34.325Z,17.50
2023-02-23T14:22:09.857Z,19.05
2023-02-23T14:24:36.875Z,22.17
2023-02-23T14:27:38.536Z,21.38
2023-02-23T14:32:42.399Z,24.30
2023-02-23T14:35:32.540Z,29.65
2023-02-23T14:38:11.416Z,24.08
2023-02-23T14:40:43.236Z,23.25
2023-02-23T14:43:49.333Z,28.35
2023-02-23T14:46:24.832Z,30.30
2023-02-23T14:49:10.088Z,26.05
2023-02-23T14:51:42.675Z,29.38
2023-02-23T14:56:46.960Z,26.05
2023-02-23T14:59:27.490Z,31.60
2023-02-23T15:01:59.304Z,31.55
2023-02-23T15:04:29.739Z,35.78
2023-02-23T15:07:00.587Z,33.60
2023-02-23T15:09:42.498Z,39.10
2023-02-23T15:12:42.158Z,35.90
2023-02-23T15:15:17.722Z,37.03
2023-02-23T15:17:47.610Z,38.60
2023-02-23T15:20:19.884Z,39.63
2023-02-23T15:22:51.754Z,38.80
2023-02-23T15:25:23.807Z,39.25
2023-02-23T15:27:51.804Z,42.05
2023-02-23T15:30:19.141Z,39.92
2023-02-23T15:32:47.931Z,42.60
2023-02-23T15:35:15.151Z,42.70
2023-02-23T15:37:46.626Z,43.10
2023-02-23T15:42:53.861Z,50.47
2023-02-23T15:45:30.044Z,55.90
2023-02-23T15:48:02.503Z,48.03
2023-02-23T15:50:37.243Z,49.97
2023-02-23T15:53:23.590Z,52.03
2023-02-23T15:55:54.181Z,53.40
2023-02-23T15:58:29.944Z,54.63
2023-02-23T16:01:05.820Z,58.10
2023-02-23T16:03:35.764Z,64.45
2023-02-23T16:06:04.557Z,62.03
2023-02-23T16:08:31.726Z,65.50
2023-02-23T16:11:12.432Z,63.28
2023-02-23T16:13:44.945Z,65.15
2023-02-23T16:16:19.298Z,61.13
2023-02-23T16:18:53.258Z,62.83
2023-02-23T16:21:24.679Z,66.20
2023-02-23T16:23:54.446Z,66.25
2023-02-23T16:26:44.317Z,69.28
2023-02-23T16:29:18.555Z,69.03
2023-02-23T16:31:48.308Z,75.85
2023-02-23T16:34:24.974Z,77.50
2023-02-23T16:37:00.104Z,73.50
2023-02-23T16:39:29.772Z,78.82
2023-02-23T16:42:01.373Z,86.68
2023-02-23T16:44:41.418Z,70.85
2023-02-23T16:47:09.727Z,76.05
2023-02-23T16:49:36.842Z,71.65
2023-02-23T16:52:15.578Z,72.60
2023-02-23T16:54:42.618Z,74.03
2023-02-23T16:57:32.220Z,75.18
2023-02-23T17:00:00.174Z,74.07
2023-02-23T17:02:27.334Z,70.93
2023-02-23T17:04:58.698Z,74.75
2023-02-23T17:07:25.732Z,82.22
2023-02-23T17:09:52.827Z,62.60
2023-02-23T17:12:21.494Z,70.82
2023-02-23T17:14:49.199Z,70.38
2023-02-23T17:17:19.623Z,69.47
2023-02-23T17:19:46.831Z,69.13
2023-02-23T17:22:14.391Z,65.47
2023-02-23T17:24:42.649Z,63.40
2023-02-23T17:27:10.324Z,64.15
2023-02-23T17:29:37.377Z,66.20
2023-02-23T17:32:04.942Z,67.85
2023-02-23T17:34:32.313Z,63.08
2023-02-23T17:36:59.390Z,65.97
2023-02-23T17:39:28.041Z,57.45
2023-02-23T17:41:55.649Z,61.22
2023-02-23T17:44:22.982Z,60.03
2023-02-23T17:46:51.243Z,65.22
2023-02-23T17:49:18.288Z,64.32
2023-02-23T17:51:45.306Z,64.85
2023-02-23T17:54:12.483Z,61.25
2023-02-23T17:56:39.479Z,66.95
2023-02-23T17:59:06.609Z,63.58
2023-02-23T18:01:33.838Z,69.13
2023-02-23T18:04:00.972Z,62.88
2023-02-23T18:06:30.010Z,73.05
2023-02-23T18:08:57.187Z,69.35
2023-02-23T18:11:24.500Z,59.90
2023-02-23T18:13:51.825Z,67.55
2023-02-23T18:16:19.740Z,66.18
2023-02-23T18:18:48.692Z,63.63
2023-02-23T18:21:19.518Z,60.42
2023-02-23T18:23:47.299Z,61.55
2023-02-23T18:26:20.285Z,57.47
2023-02-23T18:28:47.534Z,58.80
2023-02-23T18:31:17.100Z,62.95
2023-02-23T18:33:45.129Z,62.13
2023-02-23T18:36:26.117Z,51.20
2023-02-23T18:38:54.583Z,55.55
2023-02-23T18:41:22.407Z,52.95
2023-02-23T18:43:49.589Z,62.67
2023-02-23T18:46:17.054Z,59.83
2023-02-23T18:48:44.137Z,59.20
2023-02-23T18:51:14.195Z,57.55
2023-02-23T18:53:42.125Z,54.88
2023-02-23T18:56:23.081Z,61.78
2023-02-23T18:58:52.043Z,63.60
2023-02-23T19:01:23.450Z,57.38
2023-02-23T19:03:52.412Z,62.05
2023-02-23T19:06:21.749Z,60.17
2023-02-23T19:08:53.984Z,57.63
2023-02-23T19:11:26.458Z,58.15
2023-02-23T19:13:55.678Z,59.63
2023-02-23T19:16:24.151Z,55.83
2023-02-23T19:18:53.157Z,51.72
2023-02-23T19:21:23.740Z,56.67
2023-02-23T19:23:52.956Z,54.35
2023-02-23T19:26:21.323Z,46.38
2023-02-23T19:28:48.439Z,49.00
2023-02-23T19:31:20.593Z,52.25
2023-02-23T19:33:49.759Z,50.72
2023-02-23T19:36:19.313Z,43.70
2023-02-23T19:38:46.872Z,46.00
2023-02-23T19:41:19.879Z,41.08
2023-02-23T19:43:47.809Z,51.80
2023-02-23T19:46:17.203Z,54.03
2023-02-23T19:48:48.576Z,43.50
2023-02-23T19:51:15.964Z,44.55
2023-02-23T19:53:43.313Z,39.70
2023-02-23T19:56:12.596Z,44.17
2023-02-23T19:58:44.628Z,42.85
2023-02-23T20:01:19.316Z,40.72
2023-02-23T20:03:55.141Z,40.67
2023-02-23T20:06:27.717Z,42.63
2023-02-23T20:11:24.777Z,40.08
2023-02-23T20:13:53.010Z,38.28
2023-02-23T20:16:20.579Z,41.72
2023-02-23T20:18:48.119Z,42.05
2023-02-23T20:21:23.154Z,47.22
2023-02-23T20:23:50.911Z,41.10
2023-02-23T20:26:26.365Z,46.38
2023-02-23T20:28:55.249Z,40.92
2023-02-23T20:31:31.431Z,40.80
2023-02-23T20:34:01.753Z,45.47
2023-02-23T20:36:28.938Z,41.30
2023-02-23T20:38:55.937Z,47.38
2023-02-23T20:41:23.613Z,45.72
2023-02-23T20:43:51.677Z,43.95
2023-02-23T20:46:19.707Z,41.72
2023-02-23T20:48:49.025Z,41.25
2023-02-23T20:51:19.089Z,43.53
2023-02-23T20:53:47.950Z,46.05
2023-02-23T20:56:19.030Z,41.47
2023-02-23T20:58:46.782Z,39.40
2023-02-23T21:01:23.513Z,41.75
2023-02-23T21:03:52.399Z,39.30
2023-02-23T21:06:20.670Z,39.75
2023-02-23T21:08:48.936Z,41.85
2023-02-23T21:11:17.620Z,41.85
2023-02-23T21:13:45.385Z,43.05
2023-02-23T21:16:14.786Z,39.40
2023-02-23T21:18:45.155Z,34.50
2023-02-23T21:21:15.302Z,36.00
2023-02-23T21:23:45.377Z,40.38
2023-02-23T21:26:15.998Z,41.13
2023-02-23T21:28:45.355Z,34.35
2023-02-23T21:31:14.759Z,36.03
2023-02-23T21:33:43.382Z,39.42
2023-02-23T21:36:12.376Z,37.22
2023-02-23T21:38:41.846Z,36.63
2023-02-23T21:41:10.139Z,40.22
2023-02-23T21:43:40.398Z,35.33
2023-02-23T21:46:13.644Z,36.22
2023-02-23T21:48:42.144Z,28.80
2023-02-23T21:51:11.968Z,28.85
2023-02-23T21:53:39.516Z,28.92
2023-02-23T21:56:11.650Z,22.40
2023-02-23T21:58:43.092Z,20.17
2023-02-23T22:01:21.841Z,25.17
2023-02-23T22:03:49.848Z,21.50
2023-02-23T22:06:19.140Z,22.50
2023-02-23T22:08:48.013Z,20.45
2023-02-23T22:11:17.190Z,22.90
2023-02-23T22:13:45.594Z,22.27
2023-02-23T22:16:15.090Z,21.63
2023-02-23T22:18:42.866Z,24.27
2023-02-23T22:21:13.448Z,25.60
2023-02-23T22:23:43.308Z,26.48
2023-02-23T22:26:10.309Z,23.05
2023-02-23T22:28:37.361Z,25.13
2023-02-23T22:31:07.077Z,27.98
2023-02-23T22:33:35.484Z,24.88
2023-02-23T22:36:06.621Z,26.92
2023-02-23T22:38:34.213Z,30.83
2023-02-23T22:41:01.197Z,25.63
2023-02-23T22:43:29.997Z,24.52
2023-02-23T22:45:57.927Z,22.92
2023-02-23T22:48:24.920Z,28.23
2023-02-23T22:50:51.970Z,24.80
2023-02-23T22:53:18.986Z,24.13
2023-02-23T22:55:51.776Z,23.05
2023-02-23T22:58:20.121Z,22.38
2023-02-23T23:01:02.019Z,21.92
2023-02-23T23:03:42.313Z,22.10
2023-02-23T23:06:10.851Z,25.77
2023-02-23T23:08:42.718Z,24.98
2023-02-23T23:11:12.988Z,32.35
2023-02-23T23:13:44.535Z,29.80
2023-02-23T23:16:28.868Z,24.37
2023-02-23T23:19:13.045Z,22.85
2023-02-23T23:21:41.874Z,25.65
2023-02-23T23:24:13.095Z,23.70
2023-02-23T23:26:40.842Z,22.55
2023-02-23T23:29:11.180Z,40.10
2023-02-23T23:31:40.030Z,49.25
2023-02-23T23:34:10.118Z,42.08
2023-02-23T23:36:49.203Z,29.63
2023-02-23T23:39:18.448Z,29.95
2023-02-23T23:41:47.926Z,27.88
2023-02-23T23:44:21.201Z,30.38
2023-02-23T23:46:50.693Z,26.95
2023-02-23T23:49:22.128Z,30.95
2023-02-23T23:51:51.514Z,33.75
2023-02-23T23:54:30.796Z,30.23
2023-02-23T23:57:01.280Z,30.20
2023-02-23T23:59:29.042Z,33.40
